sensor_id;sensor_type;location;lat;lon;timestamp;temperature;humidity
78708;SHT31;68037;51.978;5.650;2023-06-22T00:00:21;25.0;52.0
78708;SHT31;68037;51.978;5.650;2023-06-22T00:02:51;24.9;52.3
78708;SHT31;68037;51.978;5.650;2023-06-22T00:05:21;24.9;52.2
78708;SHT31;68037;51.978;5.650;2023-06-22T00:07:50;24.9;52.3
78708;SHT31;68037;51.978;5.650;2023-06-22T00:10:20;24.8;52.3
78708;SHT31;68037;51.978;5.650;2023-06-22T00:12:49;24.8;52.3
78708;SHT31;68037;51.978;5.650;2023-06-22T00:15:19;24.7;52.7
78708;SHT31;68037;51.978;5.650;2023-06-22T00:17:49;24.7;52.6
78708;SHT31;68037;51.978;5.650;2023-06-22T00:20:18;24.7;53.0
78708;SHT31;68037;51.978;5.650;2023-06-22T00:22:48;24.7;53.2
78708;SHT31;68037;51.978;5.650;2023-06-22T00:25:17;24.7;52.7
78708;SHT31;68037;51.978;5.650;2023-06-22T00:27:47;24.7;52.9
78708;SHT31;68037;51.978;5.650;2023-06-22T00:30:17;24.7;52.8
78708;SHT31;68037;51.978;5.650;2023-06-22T00:32:47;24.6;52.9
78708;SHT31;68037;51.978;5.650;2023-06-22T00:35:18;24.6;53.1
78708;SHT31;68037;51.978;5.650;2023-06-22T00:37:48;24.5;53.0
78708;SHT31;68037;51.978;5.650;2023-06-22T00:40:19;24.5;52.6
78708;SHT31;68037;51.978;5.650;2023-06-22T00:42:51;24.5;52.8
78708;SHT31;68037;51.978;5.650;2023-06-22T00:45:20;24.4;53.0
78708;SHT31;68037;51.978;5.650;2023-06-22T00:47:52;24.4;53.5
78708;SHT31;68037;51.978;5.650;2023-06-22T00:50:24;24.3;53.5
78708;SHT31;68037;51.978;5.650;2023-06-22T00:52:58;24.3;53.2
78708;SHT31;68037;51.978;5.650;2023-06-22T00:55:32;24.3;53.5
78708;SHT31;68037;51.978;5.650;2023-06-22T00:58:05;24.2;53.8
78708;SHT31;68037;51.978;5.650;2023-06-22T01:00:39;24.2;53.5
78708;SHT31;68037;51.978;5.650;2023-06-22T01:03:09;24.1;53.9
78708;SHT31;68037;51.978;5.650;2023-06-22T01:05:39;24.1;53.8
78708;SHT31;68037;51.978;5.650;2023-06-22T01:08:23;24.1;53.9
78708;SHT31;68037;51.978;5.650;2023-06-22T01:15:39;24.2;53.7
78708;SHT31;68037;51.978;5.650;2023-06-22T01:18:09;24.2;53.2
78708;SHT31;68037;51.978;5.650;2023-06-22T01:20:41;24.2;53.2
78708;SHT31;68037;51.978;5.650;2023-06-22T01:23:20;24.2;53.3
78708;SHT31;68037;51.978;5.650;2023-06-22T01:25:59;24.2;53.3
78708;SHT31;68037;51.978;5.650;2023-06-22T01:28:45;24.2;53.4
78708;SHT31;68037;51.978;5.650;2023-06-22T01:31:18;24.1;53.5
78708;SHT31;68037;51.978;5.650;2023-06-22T01:33:53;24.0;53.7
78708;SHT31;68037;51.978;5.650;2023-06-22T01:36:26;23.9;53.9
78708;SHT31;68037;51.978;5.650;2023-06-22T01:38:57;23.9;54.0
78708;SHT31;68037;51.978;5.650;2023-06-22T01:41:29;23.8;54.2
78708;SHT31;68037;51.978;5.650;2023-06-22T01:44:02;23.7;54.6
78708;SHT31;68037;51.978;5.650;2023-06-22T01:46:35;23.6;54.6
78708;SHT31;68037;51.978;5.650;2023-06-22T01:49:09;23.6;54.9
78708;SHT31;68037;51.978;5.650;2023-06-22T01:51:40;23.5;54.9
78708;SHT31;68037;51.978;5.650;2023-06-22T01:54:12;23.4;55.0
78708;SHT31;68037;51.978;5.650;2023-06-22T01:56:45;23.4;55.2
78708;SHT31;68037;51.978;5.650;2023-06-22T01:59:24;23.3;55.5
78708;SHT31;68037;51.978;5.650;2023-06-22T02:02:27;23.2;55.9
78708;SHT31;68037;51.978;5.650;2023-06-22T02:05:12;23.2;56.4
78708;SHT31;68037;51.978;5.650;2023-06-22T02:07:56;23.3;55.8
78708;SHT31;68037;51.978;5.650;2023-06-22T02:10:29;23.3;55.9
78708;SHT31;68037;51.978;5.650;2023-06-22T02:13:01;23.2;56.0
78708;SHT31;68037;51.978;5.650;2023-06-22T02:15:32;23.2;56.0
78708;SHT31;68037;51.978;5.650;2023-06-22T02:18:02;23.1;56.1
78708;SHT31;68037;51.978;5.650;2023-06-22T02:20:32;23.1;56.3
78708;SHT31;68037;51.978;5.650;2023-06-22T02:23:02;23.0;56.2
78708;SHT31;68037;51.978;5.650;2023-06-22T02:25:31;23.0;56.5
78708;SHT31;68037;51.978;5.650;2023-06-22T02:28:01;22.9;56.7
78708;SHT31;68037;51.978;5.650;2023-06-22T02:30:31;22.9;56.9
78708;SHT31;68037;51.978;5.650;2023-06-22T02:33:01;22.8;56.8
78708;SHT31;68037;51.978;5.650;2023-06-22T02:35:30;22.8;57.0
78708;SHT31;68037;51.978;5.650;2023-06-22T02:38:04;22.8;57.0
78708;SHT31;68037;51.978;5.650;2023-06-22T02:40:33;22.7;57.3
78708;SHT31;68037;51.978;5.650;2023-06-22T02:43:03;22.7;57.3
78708;SHT31;68037;51.978;5.650;2023-06-22T02:45:33;22.7;57.7
78708;SHT31;68037;51.978;5.650;2023-06-22T02:48:03;22.6;57.7
78708;SHT31;68037;51.978;5.650;2023-06-22T02:50:32;22.6;57.7
78708;SHT31;68037;51.978;5.650;2023-06-22T02:53:03;22.6;57.8
78708;SHT31;68037;51.978;5.650;2023-06-22T02:55:33;22.6;57.8
78708;SHT31;68037;51.978;5.650;2023-06-22T02:58:02;22.7;57.7
78708;SHT31;68037;51.978;5.650;2023-06-22T03:00:32;22.7;57.5
78708;SHT31;68037;51.978;5.650;2023-06-22T03:03:02;22.7;57.4
78708;SHT31;68037;51.978;5.650;2023-06-22T03:05:31;22.6;57.6
78708;SHT31;68037;51.978;5.650;2023-06-22T03:08:02;22.6;57.7
78708;SHT31;68037;51.978;5.650;2023-06-22T03:10:34;22.5;57.9
78708;SHT31;68037;51.978;5.650;2023-06-22T03:13:04;22.5;57.8
78708;SHT31;68037;51.978;5.650;2023-06-22T03:15:37;22.4;58.1
78708;SHT31;68037;51.978;5.650;2023-06-22T03:18:06;22.4;58.1
78708;SHT31;68037;51.978;5.650;2023-06-22T03:20:36;22.3;58.2
78708;SHT31;68037;51.978;5.650;2023-06-22T03:23:06;22.3;58.6
78708;SHT31;68037;51.978;5.650;2023-06-22T03:25:35;22.2;58.7
78708;SHT31;68037;51.978;5.650;2023-06-22T03:28:05;22.2;58.9
78708;SHT31;68037;51.978;5.650;2023-06-22T03:30:34;22.2;59.0
78708;SHT31;68037;51.978;5.650;2023-06-22T03:33:04;22.1;59.0
78708;SHT31;68037;51.978;5.650;2023-06-22T03:35:33;22.1;59.0
78708;SHT31;68037;51.978;5.650;2023-06-22T03:38:05;22.1;59.3
78708;SHT31;68037;51.978;5.650;2023-06-22T03:40:35;22.1;59.0
78708;SHT31;68037;51.978;5.650;2023-06-22T03:43:06;22.2;59.1
78708;SHT31;68037;51.978;5.650;2023-06-22T03:45:36;22.2;58.5
78708;SHT31;68037;51.978;5.650;2023-06-22T03:48:12;22.3;58.4
78708;SHT31;68037;51.978;5.650;2023-06-22T03:50:43;22.4;58.2
78708;SHT31;68037;51.978;5.650;2023-06-22T03:53:13;22.4;57.7
78708;SHT31;68037;51.978;5.650;2023-06-22T03:55:50;22.4;57.8
78708;SHT31;68037;51.978;5.650;2023-06-22T03:58:21;22.3;57.8
78708;SHT31;68037;51.978;5.650;2023-06-22T04:00:52;22.3;57.9
78708;SHT31;68037;51.978;5.650;2023-06-22T04:03:22;22.2;58.4
78708;SHT31;68037;51.978;5.650;2023-06-22T04:05:51;22.2;58.5
78708;SHT31;68037;51.978;5.650;2023-06-22T04:08:23;22.2;58.5
78708;SHT31;68037;51.978;5.650;2023-06-22T04:10:53;22.1;58.7
78708;SHT31;68037;51.978;5.650;2023-06-22T04:13:23;22.1;58.7
78708;SHT31;68037;51.978;5.650;2023-06-22T04:15:52;22.1;59.4
78708;SHT31;68037;51.978;5.650;2023-06-22T04:18:22;22.1;59.5
78708;SHT31;68037;51.978;5.650;2023-06-22T04:20:52;22.2;59.3
78708;SHT31;68037;51.978;5.650;2023-06-22T04:23:21;22.2;59.2
78708;SHT31;68037;51.978;5.650;2023-06-22T04:25:51;22.3;59.1
78708;SHT31;68037;51.978;5.650;2023-06-22T04:28:21;22.3;58.9
78708;SHT31;68037;51.978;5.650;2023-06-22T04:30:50;22.4;58.8
78708;SHT31;68037;51.978;5.650;2023-06-22T04:33:21;22.4;58.8
78708;SHT31;68037;51.978;5.650;2023-06-22T04:35:51;22.5;58.8
78708;SHT31;68037;51.978;5.650;2023-06-22T04:38:20;22.5;58.6
78708;SHT31;68037;51.978;5.650;2023-06-22T04:40:55;22.5;58.4
78708;SHT31;68037;51.978;5.650;2023-06-22T04:43:24;22.5;58.7
78708;SHT31;68037;51.978;5.650;2023-06-22T04:45:57;22.5;58.9
78708;SHT31;68037;51.978;5.650;2023-06-22T04:48:30;22.5;58.9
78708;SHT31;68037;51.978;5.650;2023-06-22T04:51:01;22.4;59.3
78708;SHT31;68037;51.978;5.650;2023-06-22T04:53:32;22.4;59.6
78708;SHT31;68037;51.978;5.650;2023-06-22T04:56:01;22.3;60.3
78708;SHT31;68037;51.978;5.650;2023-06-22T04:58:31;22.3;60.2
78708;SHT31;68037;51.978;5.650;2023-06-22T05:01:01;22.3;60.4
78708;SHT31;68037;51.978;5.650;2023-06-22T05:03:31;22.2;60.6
78708;SHT31;68037;51.978;5.650;2023-06-22T05:06:01;22.2;60.9
78708;SHT31;68037;51.978;5.650;2023-06-22T05:08:30;22.2;61.1
78708;SHT31;68037;51.978;5.650;2023-06-22T05:11:00;22.2;61.5
78708;SHT31;68037;51.978;5.650;2023-06-22T05:13:29;22.1;62.0
78708;SHT31;68037;51.978;5.650;2023-06-22T05:15:59;22.1;62.5
78708;SHT31;68037;51.978;5.650;2023-06-22T05:18:32;22.1;62.4
78708;SHT31;68037;51.978;5.650;2023-06-22T05:21:02;22.2;62.6
78708;SHT31;68037;51.978;5.650;2023-06-22T05:23:33;22.2;62.8
78708;SHT31;68037;51.978;5.650;2023-06-22T05:26:03;22.2;62.8
78708;SHT31;68037;51.978;5.650;2023-06-22T05:28:36;22.2;63.4
78708;SHT31;68037;51.978;5.650;2023-06-22T05:31:05;22.4;63.1
78708;SHT31;68037;51.978;5.650;2023-06-22T05:33:35;22.4;62.0
78708;SHT31;68037;51.978;5.650;2023-06-22T05:36:05;22.5;62.0
78708;SHT31;68037;51.978;5.650;2023-06-22T05:38:35;22.5;62.0
78708;SHT31;68037;51.978;5.650;2023-06-22T05:41:07;22.6;62.2
78708;SHT31;68037;51.978;5.650;2023-06-22T05:43:37;22.6;62.0
78708;SHT31;68037;51.978;5.650;2023-06-22T05:46:06;22.6;62.1
78708;SHT31;68037;51.978;5.650;2023-06-22T05:48:36;22.7;61.5
78708;SHT31;68037;51.978;5.650;2023-06-22T05:51:08;22.7;61.7
78708;SHT31;68037;51.978;5.650;2023-06-22T05:53:38;22.7;62.0
78708;SHT31;68037;51.978;5.650;2023-06-22T05:56:07;22.7;61.6
78708;SHT31;68037;51.978;5.650;2023-06-22T05:58:37;22.7;61.4
78708;SHT31;68037;51.978;5.650;2023-06-22T06:01:06;22.7;61.6
78708;SHT31;68037;51.978;5.650;2023-06-22T06:03:36;22.8;61.5
78708;SHT31;68037;51.978;5.650;2023-06-22T06:06:08;22.8;61.5
78708;SHT31;68037;51.978;5.650;2023-06-22T06:08:38;22.8;61.3
78708;SHT31;68037;51.978;5.650;2023-06-22T06:11:08;22.8;61.7
78708;SHT31;68037;51.978;5.650;2023-06-22T06:13:37;22.9;61.1
78708;SHT31;68037;51.978;5.650;2023-06-22T06:16:07;22.9;61.2
78708;SHT31;68037;51.978;5.650;2023-06-22T06:18:36;23.0;61.6
78708;SHT31;68037;51.978;5.650;2023-06-22T06:21:08;23.0;60.7
78708;SHT31;68037;51.978;5.650;2023-06-22T06:23:37;23.1;60.7
78708;SHT31;68037;51.978;5.650;2023-06-22T06:26:07;23.2;60.8
78708;SHT31;68037;51.978;5.650;2023-06-22T06:28:36;23.2;60.9
78708;SHT31;68037;51.978;5.650;2023-06-22T06:31:08;23.2;60.7
78708;SHT31;68037;51.978;5.650;2023-06-22T06:33:41;23.3;60.7
78708;SHT31;68037;51.978;5.650;2023-06-22T06:36:11;23.3;61.0
78708;SHT31;68037;51.978;5.650;2023-06-22T06:38:40;23.4;60.8
78708;SHT31;68037;51.978;5.650;2023-06-22T06:41:10;23.5;61.3
78708;SHT31;68037;51.978;5.650;2023-06-22T06:43:39;23.5;61.0
78708;SHT31;68037;51.978;5.650;2023-06-22T06:46:10;23.6;61.0
78708;SHT31;68037;51.978;5.650;2023-06-22T06:48:40;23.6;61.1
78708;SHT31;68037;51.978;5.650;2023-06-22T06:51:10;23.7;60.9
78708;SHT31;68037;51.978;5.650;2023-06-22T06:53:41;23.8;60.7
78708;SHT31;68037;51.978;5.650;2023-06-22T06:56:11;23.8;60.6
78708;SHT31;68037;51.978;5.650;2023-06-22T06:58:41;23.9;60.4
78708;SHT31;68037;51.978;5.650;2023-06-22T07:01:13;24.0;60.3
78708;SHT31;68037;51.978;5.650;2023-06-22T07:03:42;24.0;60.0
78708;SHT31;68037;51.978;5.650;2023-06-22T07:06:13;24.1;59.9
78708;SHT31;68037;51.978;5.650;2023-06-22T07:08:43;24.2;60.5
78708;SHT31;68037;51.978;5.650;2023-06-22T07:11:13;24.4;59.8
78708;SHT31;68037;51.978;5.650;2023-06-22T07:13:42;24.6;57.9
78708;SHT31;68037;51.978;5.650;2023-06-22T07:16:12;24.7;57.6
78708;SHT31;68037;51.978;5.650;2023-06-22T07:18:42;24.8;57.9
78708;SHT31;68037;51.978;5.650;2023-06-22T07:21:11;24.9;58.0
78708;SHT31;68037;51.978;5.650;2023-06-22T07:23:40;25.0;57.0
78708;SHT31;68037;51.978;5.650;2023-06-22T07:26:10;25.1;56.1
78708;SHT31;68037;51.978;5.650;2023-06-22T07:28:40;25.2;56.5
78708;SHT31;68037;51.978;5.650;2023-06-22T07:31:10;25.3;54.6
78708;SHT31;68037;51.978;5.650;2023-06-22T07:33:39;25.4;54.1
78708;SHT31;68037;51.978;5.650;2023-06-22T07:36:08;25.4;54.1
78708;SHT31;68037;51.978;5.650;2023-06-22T07:38:40;25.5;53.9
78708;SHT31;68037;51.978;5.650;2023-06-22T07:41:10;25.5;53.7
78708;SHT31;68037;51.978;5.650;2023-06-22T07:43:39;25.6;53.5
78708;SHT31;68037;51.978;5.650;2023-06-22T07:46:11;25.6;53.9
78708;SHT31;68037;51.978;5.650;2023-06-22T07:48:40;25.6;52.8
78708;SHT31;68037;51.978;5.650;2023-06-22T07:51:11;25.7;52.3
78708;SHT31;68037;51.978;5.650;2023-06-22T07:53:43;25.7;52.6
78708;SHT31;68037;51.978;5.650;2023-06-22T07:56:15;25.8;52.7
78708;SHT31;68037;51.978;5.650;2023-06-22T07:58:47;25.8;51.4
78708;SHT31;68037;51.978;5.650;2023-06-22T08:01:17;25.9;51.4
78708;SHT31;68037;51.978;5.650;2023-06-22T08:03:49;26.0;51.4
78708;SHT31;68037;51.978;5.650;2023-06-22T08:06:19;26.0;51.3
78708;SHT31;68037;51.978;5.650;2023-06-22T08:08:48;26.0;51.6
78708;SHT31;68037;51.978;5.650;2023-06-22T08:11:20;26.0;51.8
78708;SHT31;68037;51.978;5.650;2023-06-22T08:13:53;26.0;51.9
78708;SHT31;68037;51.978;5.650;2023-06-22T08:16:26;26.1;51.3
78708;SHT31;68037;51.978;5.650;2023-06-22T08:18:58;26.1;52.0
78708;SHT31;68037;51.978;5.650;2023-06-22T08:21:28;26.1;50.9
78708;SHT31;68037;51.978;5.650;2023-06-22T08:23:58;26.1;51.1
78708;SHT31;68037;51.978;5.650;2023-06-22T08:26:27;26.1;51.1
78708;SHT31;68037;51.978;5.650;2023-06-22T08:28:57;26.1;50.5
78708;SHT31;68037;51.978;5.650;2023-06-22T08:31:26;26.1;50.5
78708;SHT31;68037;51.978;5.650;2023-06-22T08:33:56;26.1;50.8
78708;SHT31;68037;51.978;5.650;2023-06-22T08:36:25;26.1;50.8
78708;SHT31;68037;51.978;5.650;2023-06-22T08:38:59;26.1;51.1
78708;SHT31;68037;51.978;5.650;2023-06-22T08:41:30;26.1;51.8
78708;SHT31;68037;51.978;5.650;2023-06-22T08:44:00;26.1;50.4
78708;SHT31;68037;51.978;5.650;2023-06-22T08:46:32;26.1;51.4
78708;SHT31;68037;51.978;5.650;2023-06-22T08:49:01;26.2;51.4
78708;SHT31;68037;51.978;5.650;2023-06-22T08:51:38;26.3;50.3
78708;SHT31;68037;51.978;5.650;2023-06-22T08:54:08;26.4;50.1
78708;SHT31;68037;51.978;5.650;2023-06-22T08:56:38;26.4;50.1
78708;SHT31;68037;51.978;5.650;2023-06-22T08:59:08;26.5;51.2
78708;SHT31;68037;51.978;5.650;2023-06-22T09:01:38;26.5;50.2
78708;SHT31;68037;51.978;5.650;2023-06-22T09:04:09;26.5;51.2
78708;SHT31;68037;51.978;5.650;2023-06-22T09:06:39;26.6;50.5
78708;SHT31;68037;51.978;5.650;2023-06-22T09:09:13;26.6;50.4
78708;SHT31;68037;51.978;5.650;2023-06-22T09:11:44;26.6;50.6
78708;SHT31;68037;51.978;5.650;2023-06-22T09:14:14;26.7;51.4
78708;SHT31;68037;51.978;5.650;2023-06-22T09:16:44;26.7;50.7
78708;SHT31;68037;51.978;5.650;2023-06-22T09:19:15;26.8;51.3
78708;SHT31;68037;51.978;5.650;2023-06-22T09:21:45;26.8;48.4
78708;SHT31;68037;51.978;5.650;2023-06-22T09:24:15;26.9;48.9
78708;SHT31;68037;51.978;5.650;2023-06-22T09:26:44;26.9;49.2
78708;SHT31;68037;51.978;5.650;2023-06-22T09:29:14;26.9;48.0
78708;SHT31;68037;51.978;5.650;2023-06-22T09:31:43;27.0;46.7
78708;SHT31;68037;51.978;5.650;2023-06-22T09:34:13;27.0;46.5
78708;SHT31;68037;51.978;5.650;2023-06-22T09:36:43;27.0;46.8
78708;SHT31;68037;51.978;5.650;2023-06-22T09:39:13;27.1;46.9
78708;SHT31;68037;51.978;5.650;2023-06-22T09:41:47;27.2;46.1
78708;SHT31;68037;51.978;5.650;2023-06-22T09:44:17;27.3;45.3
78708;SHT31;68037;51.978;5.650;2023-06-22T09:46:47;27.3;45.5
78708;SHT31;68037;51.978;5.650;2023-06-22T09:49:16;27.3;44.0
78708;SHT31;68037;51.978;5.650;2023-06-22T09:51:46;27.3;43.8
78708;SHT31;68037;51.978;5.650;2023-06-22T09:54:17;27.3;44.7
78708;SHT31;68037;51.978;5.650;2023-06-22T09:56:46;27.3;44.5
78708;SHT31;68037;51.978;5.650;2023-06-22T09:59:16;27.3;45.0
78708;SHT31;68037;51.978;5.650;2023-06-22T10:01:46;27.3;45.0
78708;SHT31;68037;51.978;5.650;2023-06-22T10:04:17;27.3;45.7
78708;SHT31;68037;51.978;5.650;2023-06-22T10:06:47;27.3;44.8
78708;SHT31;68037;51.978;5.650;2023-06-22T10:09:16;27.4;44.8
78708;SHT31;68037;51.978;5.650;2023-06-22T10:11:46;27.4;44.8
78708;SHT31;68037;51.978;5.650;2023-06-22T10:14:15;27.4;45.1
78708;SHT31;68037;51.978;5.650;2023-06-22T10:16:48;27.4;44.9
78708;SHT31;68037;51.978;5.650;2023-06-22T10:19:18;27.5;45.0
78708;SHT31;68037;51.978;5.650;2023-06-22T10:21:49;27.5;45.3
78708;SHT31;68037;51.978;5.650;2023-06-22T10:24:19;27.6;45.4
78708;SHT31;68037;51.978;5.650;2023-06-22T10:26:49;27.6;45.3
78708;SHT31;68037;51.978;5.650;2023-06-22T10:29:21;27.6;45.5
78708;SHT31;68037;51.978;5.650;2023-06-22T10:31:51;27.7;46.4
78708;SHT31;68037;51.978;5.650;2023-06-22T10:34:20;27.7;46.0
78708;SHT31;68037;51.978;5.650;2023-06-22T10:36:50;27.8;45.9
78708;SHT31;68037;51.978;5.650;2023-06-22T10:39:19;27.8;46.5
78708;SHT31;68037;51.978;5.650;2023-06-22T10:41:49;27.9;46.3
78708;SHT31;68037;51.978;5.650;2023-06-22T10:44:24;27.9;45.6
78708;SHT31;68037;51.978;5.650;2023-06-22T10:46:53;28.0;45.4
78708;SHT31;68037;51.978;5.650;2023-06-22T10:49:23;28.0;45.5
78708;SHT31;68037;51.978;5.650;2023-06-22T10:51:52;28.0;46.4
78708;SHT31;68037;51.978;5.650;2023-06-22T10:54:22;28.0;45.1
78708;SHT31;68037;51.978;5.650;2023-06-22T10:56:51;28.0;45.5
78708;SHT31;68037;51.978;5.650;2023-06-22T10:59:21;28.0;45.5
78708;SHT31;68037;51.978;5.650;2023-06-22T11:01:52;28.0;44.8
78708;SHT31;68037;51.978;5.650;2023-06-22T11:04:22;27.9;45.6
78708;SHT31;68037;51.978;5.650;2023-06-22T11:06:51;27.8;46.6
78708;SHT31;68037;51.978;5.650;2023-06-22T11:09:21;27.8;47.5
78708;SHT31;68037;51.978;5.650;2023-06-22T11:11:51;27.7;46.9
78708;SHT31;68037;51.978;5.650;2023-06-22T11:14:23;27.7;47.0
78708;SHT31;68037;51.978;5.650;2023-06-22T11:16:54;27.6;47.2
78708;SHT31;68037;51.978;5.650;2023-06-22T11:19:25;27.6;48.7
78708;SHT31;68037;51.978;5.650;2023-06-22T11:21:59;27.6;48.2
78708;SHT31;68037;51.978;5.650;2023-06-22T11:24:29;27.7;48.4
78708;SHT31;68037;51.978;5.650;2023-06-22T11:27:00;27.7;48.2
78708;SHT31;68037;51.978;5.650;2023-06-22T11:29:29;27.7;49.4
78708;SHT31;68037;51.978;5.650;2023-06-22T11:31:59;27.6;49.4
78708;SHT31;68037;51.978;5.650;2023-06-22T11:34:29;27.5;51.0
78708;SHT31;68037;51.978;5.650;2023-06-22T11:36:58;27.5;50.8
78708;SHT31;68037;51.978;5.650;2023-06-22T11:39:28;27.4;52.0
78708;SHT31;68037;51.978;5.650;2023-06-22T11:41:57;27.3;51.6
78708;SHT31;68037;51.978;5.650;2023-06-22T11:44:27;27.2;52.2
78708;SHT31;68037;51.978;5.650;2023-06-22T11:46:56;27.2;53.5
78708;SHT31;68037;51.978;5.650;2023-06-22T11:49:28;27.2;52.3
78708;SHT31;68037;51.978;5.650;2023-06-22T11:51:57;27.1;53.2
78708;SHT31;68037;51.978;5.650;2023-06-22T11:54:27;27.1;53.4
78708;SHT31;68037;51.978;5.650;2023-06-22T11:56:56;27.1;52.9
78708;SHT31;68037;51.978;5.650;2023-06-22T11:59:26;27.1;52.5
78708;SHT31;68037;51.978;5.650;2023-06-22T12:01:57;27.1;52.9
78708;SHT31;68037;51.978;5.650;2023-06-22T12:04:27;27.1;53.4
78708;SHT31;68037;51.978;5.650;2023-06-22T12:06:57;27.0;53.2
78708;SHT31;68037;51.978;5.650;2023-06-22T12:09:26;27.0;55.2
78708;SHT31;68037;51.978;5.650;2023-06-22T12:11:57;27.0;54.5
78708;SHT31;68037;51.978;5.650;2023-06-22T12:14:27;27.0;55.2
78708;SHT31;68037;51.978;5.650;2023-06-22T12:16:56;27.0;56.5
78708;SHT31;68037;51.978;5.650;2023-06-22T12:19:26;26.9;56.7
78708;SHT31;68037;51.978;5.650;2023-06-22T12:21:55;26.8;57.9
78708;SHT31;68037;51.978;5.650;2023-06-22T12:24:25;26.7;58.0
78708;SHT31;68037;51.978;5.650;2023-06-22T12:26:54;26.7;59.6
78708;SHT31;68037;51.978;5.650;2023-06-22T12:29:24;26.6;60.0
78708;SHT31;68037;51.978;5.650;2023-06-22T12:31:54;26.6;59.4
78708;SHT31;68037;51.978;5.650;2023-06-22T12:34:24;26.5;60.2
78708;SHT31;68037;51.978;5.650;2023-06-22T12:36:53;26.5;59.7
78708;SHT31;68037;51.978;5.650;2023-06-22T12:39:23;26.5;60.2
78708;SHT31;68037;51.978;5.650;2023-06-22T12:41:52;26.4;61.6
78708;SHT31;68037;51.978;5.650;2023-06-22T12:44:22;26.4;61.7
78708;SHT31;68037;51.978;5.650;2023-06-22T12:46:51;26.3;62.1
78708;SHT31;68037;51.978;5.650;2023-06-22T12:49:21;26.2;62.0
78708;SHT31;68037;51.978;5.650;2023-06-22T12:51:51;26.1;62.7
78708;SHT31;68037;51.978;5.650;2023-06-22T12:54:22;26.1;62.7
78708;SHT31;68037;51.978;5.650;2023-06-22T12:56:52;26.0;62.7
78708;SHT31;68037;51.978;5.650;2023-06-22T12:59:21;26.0;62.3
78708;SHT31;68037;51.978;5.650;2023-06-22T13:01:51;25.9;62.8
78708;SHT31;68037;51.978;5.650;2023-06-22T13:04:20;25.9;62.8
78708;SHT31;68037;51.978;5.650;2023-06-22T13:06:50;25.9;63.1
78708;SHT31;68037;51.978;5.650;2023-06-22T13:09:20;25.8;64.4
78708;SHT31;68037;51.978;5.650;2023-06-22T13:11:50;25.8;64.3
78708;SHT31;68037;51.978;5.650;2023-06-22T13:14:19;25.7;64.4
78708;SHT31;68037;51.978;5.650;2023-06-22T13:16:49;25.6;65.0
78708;SHT31;68037;51.978;5.650;2023-06-22T13:19:19;25.6;64.4
78708;SHT31;68037;51.978;5.650;2023-06-22T13:21:50;25.5;64.9
78708;SHT31;68037;51.978;5.650;2023-06-22T13:24:19;25.4;64.7
78708;SHT31;68037;51.978;5.650;2023-06-22T13:26:49;25.3;65.8
78708;SHT31;68037;51.978;5.650;2023-06-22T13:29:18;25.2;66.6
78708;SHT31;68037;51.978;5.650;2023-06-22T13:31:48;25.1;68.4
78708;SHT31;68037;51.978;5.650;2023-06-22T13:34:17;25.0;68.2
78708;SHT31;68037;51.978;5.650;2023-06-22T13:36:47;24.9;68.6
78708;SHT31;68037;51.978;5.650;2023-06-22T13:39:16;24.9;70.1
78708;SHT31;68037;51.978;5.650;2023-06-22T13:41:46;24.8;70.1
78708;SHT31;68037;51.978;5.650;2023-06-22T13:44:16;24.7;70.0
78708;SHT31;68037;51.978;5.650;2023-06-22T13:46:46;24.6;69.6
78708;SHT31;68037;51.978;5.650;2023-06-22T13:49:15;24.6;68.3
78708;SHT31;68037;51.978;5.650;2023-06-22T13:51:45;24.5;69.3
78708;SHT31;68037;51.978;5.650;2023-06-22T13:54:16;24.5;69.7
78708;SHT31;68037;51.978;5.650;2023-06-22T13:56:45;24.4;71.1
78708;SHT31;68037;51.978;5.650;2023-06-22T13:59:15;24.3;71.4
78708;SHT31;68037;51.978;5.650;2023-06-22T14:01:45;24.2;72.1
78708;SHT31;68037;51.978;5.650;2023-06-22T14:04:14;24.1;72.5
78708;SHT31;68037;51.978;5.650;2023-06-22T14:06:44;24.1;71.5
78708;SHT31;68037;51.978;5.650;2023-06-22T14:09:13;24.0;72.7
78708;SHT31;68037;51.978;5.650;2023-06-22T14:11:43;23.9;72.2
78708;SHT31;68037;51.978;5.650;2023-06-22T14:14:14;23.8;72.5
78708;SHT31;68037;51.978;5.650;2023-06-22T14:16:44;23.8;72.0
78708;SHT31;68037;51.978;5.650;2023-06-22T14:19:16;23.7;73.5
78708;SHT31;68037;51.978;5.650;2023-06-22T14:21:45;23.6;72.7
78708;SHT31;68037;51.978;5.650;2023-06-22T14:24:15;23.5;73.7
78708;SHT31;68037;51.978;5.650;2023-06-22T14:26:44;23.5;74.6
78708;SHT31;68037;51.978;5.650;2023-06-22T14:29:14;23.4;74.1
78708;SHT31;68037;51.978;5.650;2023-06-22T14:31:46;23.4;74.5
78708;SHT31;68037;51.978;5.650;2023-06-22T14:34:15;23.3;73.8
78708;SHT31;68037;51.978;5.650;2023-06-22T14:36:45;23.3;73.9
78708;SHT31;68037;51.978;5.650;2023-06-22T14:39:16;23.2;74.2
78708;SHT31;68037;51.978;5.650;2023-06-22T14:41:46;23.2;73.5
78708;SHT31;68037;51.978;5.650;2023-06-22T14:44:17;23.1;74.7
78708;SHT31;68037;51.978;5.650;2023-06-22T14:46:49;23.1;74.2
78708;SHT31;68037;51.978;5.650;2023-06-22T14:49:18;23.0;73.9
78708;SHT31;68037;51.978;5.650;2023-06-22T14:51:48;23.0;73.4
78708;SHT31;68037;51.978;5.650;2023-06-22T14:54:17;22.9;73.7
78708;SHT31;68037;51.978;5.650;2023-06-22T14:56:47;22.9;74.2
78708;SHT31;68037;51.978;5.650;2023-06-22T14:59:17;22.8;74.2
78708;SHT31;68037;51.978;5.650;2023-06-22T15:01:46;22.8;73.8
78708;SHT31;68037;51.978;5.650;2023-06-22T15:04:16;22.8;73.9
78708;SHT31;68037;51.978;5.650;2023-06-22T15:06:46;22.7;75.1
78708;SHT31;68037;51.978;5.650;2023-06-22T15:09:16;22.7;74.5
78708;SHT31;68037;51.978;5.650;2023-06-22T15:11:45;22.7;75.0
78708;SHT31;68037;51.978;5.650;2023-06-22T15:14:15;22.7;75.5
78708;SHT31;68037;51.978;5.650;2023-06-22T15:16:45;22.7;76.4
78708;SHT31;68037;51.978;5.650;2023-06-22T15:19:15;22.7;76.3
78708;SHT31;68037;51.978;5.650;2023-06-22T15:21:45;22.7;76.2
78708;SHT31;68037;51.978;5.650;2023-06-22T15:24:14;22.7;76.3
78708;SHT31;68037;51.978;5.650;2023-06-22T15:26:44;22.7;75.8
78708;SHT31;68037;51.978;5.650;2023-06-22T15:29:13;22.7;75.9
78708;SHT31;68037;51.978;5.650;2023-06-22T15:31:43;22.7;75.8
78708;SHT31;68037;51.978;5.650;2023-06-22T15:34:13;22.7;76.3
78708;SHT31;68037;51.978;5.650;2023-06-22T15:36:43;22.7;75.3
78708;SHT31;68037;51.978;5.650;2023-06-22T15:39:15;22.7;75.4
78708;SHT31;68037;51.978;5.650;2023-06-22T15:41:45;22.7;75.4
78708;SHT31;68037;51.978;5.650;2023-06-22T15:44:16;22.7;75.9
78708;SHT31;68037;51.978;5.650;2023-06-22T15:46:45;22.7;75.9
78708;SHT31;68037;51.978;5.650;2023-06-22T15:49:16;22.6;75.5
78708;SHT31;68037;51.978;5.650;2023-06-22T15:51:46;22.6;76.1
78708;SHT31;68037;51.978;5.650;2023-06-22T15:54:15;22.6;76.2
78708;SHT31;68037;51.978;5.650;2023-06-22T15:56:45;22.6;76.2
78708;SHT31;68037;51.978;5.650;2023-06-22T15:59:15;22.5;76.7
78708;SHT31;68037;51.978;5.650;2023-06-22T16:01:45;22.5;76.9
78708;SHT31;68037;51.978;5.650;2023-06-22T16:04:15;22.5;77.8
78708;SHT31;68037;51.978;5.650;2023-06-22T16:06:44;22.4;78.2
78708;SHT31;68037;51.978;5.650;2023-06-22T16:09:14;22.4;78.2
78708;SHT31;68037;51.978;5.650;2023-06-22T16:11:44;22.4;79.4
78708;SHT31;68037;51.978;5.650;2023-06-22T16:14:13;22.4;79.2
78708;SHT31;68037;51.978;5.650;2023-06-22T16:16:43;22.4;79.9
78708;SHT31;68037;51.978;5.650;2023-06-22T16:19:13;22.4;79.5
78708;SHT31;68037;51.978;5.650;2023-06-22T16:21:42;22.4;80.1
78708;SHT31;68037;51.978;5.650;2023-06-22T16:24:12;22.5;79.9
78708;SHT31;68037;51.978;5.650;2023-06-22T16:26:42;22.5;79.7